Nampa, Idaho
Current Conditions -  °F | °C
As of 12:55 PM on Saturday 20 Dec 2014 (Local Time) from KMAN Reporting Station
Broken Clouds Broken Clouds  
Wind Chill: 39°   Ceiling: 5500
Heat Index: 45°   Visibility: 10mi
Dew Point: 45°   Wind: 12mph
Humidity: 100%   Direction: 130°SE
Pressure: 29.96"   Gusts: NA
Location:  43.58°N, 116.57°W
Report Text: KMAN 201955Z AUTO 13010KT 10SM BKN055 07/07 A2996 RMK AO1
Loading
Personal Weather Stations






























Interactive Weather Map New forecast layout! Learn more

10-Day Weather Forecast

Advertisements
Track Severe Weather on mobile